Pagrindinis puslapis
METAR-TAF:

METAR-TAF

Oro uostai :

Mehongsonas, Tailandas

platuma: 19-18N, ilguma: 097-50E, Aukštis: 267 m

Dabartinis oras

Ataskaita buvo paskelbta 4 valandos ir 30 minutes, ne 12:00 UTC
Ramus vėjas
Temperatūra 35°C
Drėgmė 32%
Slėgis 1005 hPa
Matomumas: 7000 m
Mažai debesys ne aukštis 2500 ft

METAR: VTCH 311200Z 00000KT 7000 FEW025 35/16 Q1005 NOSIG

Laikas: 23:30 (16:30 UTC)

Prognozė

Ataskaita buvo paskelbta 5 valandos ir 30 minutes, ne 11:00 UTC
Prognozė galioja nuo 31 metu 12 UTC su 01 metu 12 UTC
Vėjas 4 kt iš Pietų/Pietvakarių
Matomumas: 6000 m
Tapsmas
nuo 31 metu 21 UTC su 31 metu 23 UTC
Matomumas: 1500 m
rūkana
Tapsmas
nuo 01 metu 02 UTC su 01 metu 04 UTC
Matomumas: 5000 m
migla

TAF: VTCH 311100Z 3112/0112 20004KT 6000 NSC BECMG 3121/3123 1500 BR BECMG 0102/0104 5000 HZ

Orai ataskaitas ir orų prognozės (METAR, TAF).

turimą stotys yra geltonos ir raudonos taškus žemėlapyje.

Perkelti pele per norėdami pamatyti stoties vardą.

Tada spustelėkite, norėdami matyti oro stebėjimo ir prognozės.

Norėdami pakeisti žemėlapį: spustelėkite ant žalios mygtukų su juodo kryžiaus žemyn,; žalią mygtuką su brūkšneliu, jei norite nutolinti; arba žalių rodyklių gretimoms žemėlapius.


METAR-TAF: